Time;durP1;ratioP1;P1;durP2;ratioP2;P2;SDS_P1;SDS_P2;PMS_P1;PMS_P2;Temp;Humidity;BMP_temperature;BMP_pressure;BME280_temperature;BME280_humidity;BME280_pressure;Samples;Min_cycle;Max_cycle;Signal;HPM_P1;HPM_P2
2021/01/14 00:00:46;;;;;;;12.17;11.57;;;3.10;99.90;;;;;;6066815;23;20423;-76
2021/01/14 00:03:13;;;;;;;12.30;11.70;;;3.00;99.90;;;;;;6067017;23;20415;-77
2021/01/14 00:05:40;;;;;;;12.20;11.60;;;3.00;99.90;;;;;;6066511;23;20945;-76
2021/01/14 00:08:07;;;;;;;12.20;11.60;;;3.00;99.90;;;;;;6067965;23;20442;-77
2021/01/14 00:10:36;;;;;;;12.20;11.60;;;3.00;99.90;;;;;;6067668;23;20449;-76
2021/01/14 00:13:02;;;;;;;12.13;11.53;;;3.00;99.90;;;;;;6066537;23;20430;-77
2021/01/14 00:15:29;;;;;;;12.07;11.47;;;2.90;99.90;;;;;;6068032;23;20399;-76
2021/01/14 00:17:55;;;;;;;12.30;11.70;;;2.90;99.90;;;;;;6066511;23;20439;-76
2021/01/14 00:20:22;;;;;;;12.17;11.57;;;2.90;99.90;;;;;;6067793;23;20391;-77
2021/01/14 00:22:48;;;;;;;12.40;11.80;;;2.90;99.90;;;;;;6067950;23;20882;-76
2021/01/14 00:25:17;;;;;;;12.40;11.77;;;2.80;99.90;;;;;;6068132;23;20395;-76
2021/01/14 00:27:44;;;;;;;12.73;12.03;;;2.80;99.90;;;;;;6068424;23;20448;-77
2021/01/14 00:30:13;;;;;;;12.83;12.13;;;2.70;99.90;;;;;;6067982;23;20483;-76
2021/01/14 00:32:39;;;;;;;12.80;12.10;;;2.60;99.90;;;;;;6066713;23;20421;-77
2021/01/14 00:35:07;;;;;;;12.30;11.67;;;2.50;99.90;;;;;;6068191;23;20399;-75
2021/01/14 00:37:53;;;;;;;12.33;11.73;;;2.40;99.90;;;;;;6066262;23;20416;-76
2021/01/14 00:40:21;;;;;;;12.63;12.03;;;2.40;99.90;;;;;;6067336;23;20442;-76
2021/01/14 00:42:54;;;;;;;12.43;11.83;;;2.30;99.90;;;;;;6067865;23;20398;-76
2021/01/14 00:45:20;;;;;;;12.43;11.83;;;2.30;99.90;;;;;;6066230;23;20840;-76
2021/01/14 00:47:47;;;;;;;12.40;11.70;;;2.30;99.90;;;;;;6067654;23;21079;-77
2021/01/14 00:50:13;;;;;;;12.07;11.47;;;2.30;99.90;;;;;;6067329;23;20426;-76
2021/01/14 00:52:41;;;;;;;12.77;12.07;;;2.30;99.90;;;;;;6068533;23;20395;-76
2021/01/14 00:55:08;;;;;;;12.60;11.90;;;2.30;99.90;;;;;;6067764;23;20400;-76
2021/01/14 00:57:35;;;;;;;12.23;11.63;;;2.20;99.90;;;;;;6067620;23;20387;-76
2021/01/14 01:00:03;;;;;;;12.10;11.50;;;2.20;99.90;;;;;;6066036;23;20436;-76
2021/01/14 01:02:29;;;;;;;12.23;11.63;;;2.20;99.90;;;;;;6065928;23;20432;-75
2021/01/14 01:04:56;;;;;;;12.10;11.50;;;2.20;99.90;;;;;;6066158;23;20418;-76
2021/01/14 01:07:22;;;;;;;12.20;11.50;;;2.10;99.90;;;;;;6067289;23;20428;-76
2021/01/14 01:09:49;;;;;;;12.30;11.60;;;2.10;99.90;;;;;;6067186;23;20399;-76
2021/01/14 01:12:15;;;;;;;12.63;11.93;;;2.10;99.90;;;;;;6067683;23;20787;-76
2021/01/14 01:14:41;;;;;;;13.00;12.30;;;2.10;99.90;;;;;;6067794;23;20391;-76
2021/01/14 01:17:08;;;;;;;13.40;12.70;;;2.10;99.90;;;;;;6067716;23;20736;-76
2021/01/14 01:19:34;;;;;;;13.60;12.90;;;2.10;99.90;;;;;;6067585;23;20478;-76
2021/01/14 01:22:00;;;;;;;13.80;13.10;;;2.10;99.90;;;;;;6067578;23;20403;-76
2021/01/14 01:24:26;;;;;;;13.73;13.03;;;2.10;99.90;;;;;;6066054;23;20472;-77
2021/01/14 01:26:54;;;;;;;13.73;13.03;;;2.10;99.90;;;;;;6065980;23;20448;-76
2021/01/14 01:29:20;;;;;;;13.43;12.73;;;2.10;99.90;;;;;;6067065;23;20415;-77
2021/01/14 01:31:47;;;;;;;13.70;13.00;;;2.20;99.90;;;;;;6065890;23;20532;-76
2021/01/14 01:34:13;;;;;;;13.43;12.73;;;2.10;99.90;;;;;;6066004;23;20482;-76
2021/01/14 01:36:40;;;;;;;13.60;12.80;;;2.20;99.90;;;;;;6066147;23;20419;-76
2021/01/14 01:39:06;;;;;;;13.30;12.60;;;2.20;99.90;;;;;;6065368;23;20422;-76
2021/01/14 01:41:32;;;;;;;13.43;12.73;;;2.10;99.90;;;;;;6067796;23;20456;-76
2021/01/14 01:44:00;;;;;;;13.80;13.00;;;2.20;99.90;;;;;;6067432;23;20388;-77
2021/01/14 01:46:29;;;;;;;13.47;12.77;;;2.10;99.90;;;;;;6067339;23;20455;-77
2021/01/14 01:48:58;;;;;;;12.93;12.23;;;2.20;99.90;;;;;;6065539;23;20767;-76
2021/01/14 01:51:30;;;;;;;12.63;12.00;;;2.20;99.90;;;;;;6067409;23;20412;-76
2021/01/14 01:53:56;;;;;;;12.80;12.10;;;2.20;99.90;;;;;;6067689;23;20441;-76
2021/01/14 01:56:23;;;;;;;12.60;11.90;;;2.20;99.90;;;;;;6067317;23;20420;-76
2021/01/14 01:58:51;;;;;;;12.80;12.10;;;2.20;99.90;;;;;;6065944;23;20439;-77
2021/01/14 02:01:18;;;;;;;12.00;11.40;;;2.20;99.90;;;;;;6065838;23;20423;-77
2021/01/14 02:03:44;;;;;;;11.83;11.23;;;2.30;99.90;;;;;;6067242;23;20446;-76
2021/01/14 02:06:10;;;;;;;12.20;11.60;;;2.30;99.90;;;;;;6067196;23;20393;-76
2021/01/14 02:08:43;;;;;;;11.90;11.20;;;2.30;99.90;;;;;;6066985;23;20798;-77
2021/01/14 02:11:13;;;;;;;11.73;11.13;;;2.30;99.90;;;;;;6065604;23;20470;-76
2021/01/14 02:13:53;;;;;;;11.90;11.30;;;2.30;99.90;;;;;;6066955;23;20835;-76
2021/01/14 02:16:22;;;;;;;11.70;11.10;;;2.30;99.90;;;;;;6067048;23;20379;-77
2021/01/14 02:18:53;;;;;;;11.80;11.20;;;2.30;99.90;;;;;;6066684;23;20412;-76
2021/01/14 02:21:20;;;;;;;11.93;11.30;;;2.20;99.90;;;;;;6065652;23;20473;-77
2021/01/14 02:23:56;;;;;;;12.03;11.43;;;2.30;99.90;;;;;;6063916;23;20813;-77
2021/01/14 02:26:24;;;;;;;12.40;11.53;;;2.20;99.90;;;;;;6066450;23;20423;-76
2021/01/14 02:28:53;;;;;;;12.00;11.30;;;2.20;99.90;;;;;;6066623;23;20407;-77
2021/01/14 02:31:20;;;;;;;12.23;11.60;;;2.20;99.90;;;;;;6065594;23;20454;-76
2021/01/14 02:33:48;;;;;;;12.40;11.70;;;2.20;99.90;;;;;;6065555;23;20422;-77
2021/01/14 02:36:14;;;;;;;11.87;11.27;;;2.20;99.90;;;;;;6066861;23;20767;-76
2021/01/14 02:38:40;;;;;;;11.63;11.03;;;2.20;99.90;;;;;;6064881;23;20502;-76
2021/01/14 02:41:07;;;;;;;12.60;11.90;;;2.20;99.90;;;;;;6066935;23;20396;-76
2021/01/14 02:43:35;;;;;;;12.13;11.53;;;2.20;99.90;;;;;;6066993;23;20416;-76
2021/01/14 02:46:02;;;;;;;12.17;11.47;;;2.20;99.90;;;;;;6065421;23;20440;-77
2021/01/14 02:48:34;;;;;;;12.30;11.60;;;2.20;99.90;;;;;;6065009;23;21049;-76
2021/01/14 02:51:06;;;;;;;11.80;11.20;;;2.20;99.90;;;;;;6065188;23;20453;-76
2021/01/14 02:53:34;;;;;;;12.00;11.27;;;2.20;99.90;;;;;;6066942;23;20379;-76
2021/01/14 02:56:01;;;;;;;12.00;11.30;;;2.20;99.90;;;;;;6065637;23;20418;-77
2021/01/14 02:58:28;;;;;;;11.60;11.00;;;2.20;99.90;;;;;;6066505;23;20411;-76
2021/01/14 03:00:56;;;;;;;11.67;11.07;;;2.20;99.90;;;;;;6067035;23;20483;-76
2021/01/14 03:03:22;;;;;;;11.63;11.03;;;2.20;99.90;;;;;;6066546;23;20745;-77
2021/01/14 03:05:49;;;;;;;11.97;11.27;;;2.20;99.90;;;;;;6065444;23;20419;-77
2021/01/14 03:08:15;;;;;;;11.37;10.77;;;2.20;99.90;;;;;;6065028;23;20444;-76
2021/01/14 03:10:43;;;;;;;11.83;11.20;;;2.20;99.90;;;;;;6091596;23;20416;-76
2021/01/14 03:13:09;;;;;;;11.63;11.00;;;2.20;99.90;;;;;;6068907;23;20510;-76
2021/01/14 03:15:35;;;;;;;11.83;11.23;;;2.20;99.90;;;;;;6067322;23;20471;-76
2021/01/14 03:18:02;;;;;;;11.80;11.20;;;2.20;99.90;;;;;;6066451;23;20768;-74
2021/01/14 03:20:29;;;;;;;12.50;11.70;;;2.20;99.90;;;;;;6068616;23;20457;-76
2021/01/14 03:22:55;;;;;;;12.40;11.70;;;2.20;99.90;;;;;;6067482;23;20421;-76
2021/01/14 03:25:21;;;;;;;12.20;11.50;;;2.20;99.90;;;;;;6069035;23;20415;-77
2021/01/14 03:27:48;;;;;;;12.87;12.17;;;2.20;99.90;;;;;;6067193;23;20450;-76
2021/01/14 03:30:15;;;;;;;12.70;12.00;;;2.20;99.90;;;;;;6066873;23;20436;-76
2021/01/14 03:32:42;;;;;;;12.07;11.47;;;2.20;99.90;;;;;;6068360;23;20447;-76
2021/01/14 03:35:10;;;;;;;11.87;11.27;;;2.20;99.90;;;;;;6068738;23;20395;-76
2021/01/14 03:37:41;;;;;;;11.70;11.10;;;2.20;99.90;;;;;;6091615;23;20417;-76
2021/01/14 03:40:10;;;;;;;11.77;11.07;;;2.20;99.90;;;;;;6068196;23;20429;-77
2021/01/14 03:42:37;;;;;;;11.40;10.80;;;2.20;99.90;;;;;;6066255;23;20466;-76
2021/01/14 03:45:05;;;;;;;11.50;10.80;;;2.20;99.90;;;;;;6067996;23;20565;-76
2021/01/14 03:47:31;;;;;;;11.40;10.80;;;2.20;99.90;;;;;;6069469;23;20481;-78
2021/01/14 03:49:58;;;;;;;11.60;11.00;;;2.20;99.90;;;;;;6069888;23;20432;-78
2021/01/14 03:52:25;;;;;;;11.90;11.20;;;2.20;99.90;;;;;;6070818;23;20397;-78
2021/01/14 03:54:51;;;;;;;11.77;11.00;;;2.20;99.90;;;;;;6068587;23;20415;-79
2021/01/14 03:57:18;;;;;;;11.40;10.80;;;2.20;99.90;;;;;;6072925;23;20401;-79
2021/01/14 03:59:44;;;;;;;12.13;11.43;;;2.20;99.90;;;;;;6070523;23;20409;-76
2021/01/14 04:02:11;;;;;;;11.67;11.07;;;2.20;99.90;;;;;;6065291;23;20422;-76
2021/01/14 04:04:38;;;;;;;11.97;11.37;;;2.20;99.90;;;;;;6068881;23;20387;-76
2021/01/14 04:07:07;;;;;;;11.50;10.90;;;2.20;99.90;;;;;;6067760;23;20436;-76
2021/01/14 04:09:34;;;;;;;11.57;10.97;;;2.20;99.90;;;;;;6067426;23;20569;-76
2021/01/14 04:12:00;;;;;;;12.00;11.20;;;2.20;99.90;;;;;;6065266;23;20419;-76
2021/01/14 04:14:27;;;;;;;12.23;11.53;;;2.20;99.90;;;;;;6066011;23;20457;-75
2021/01/14 04:16:54;;;;;;;12.00;11.30;;;2.10;99.90;;;;;;6068039;23;20473;-75
2021/01/14 04:19:21;;;;;;;12.07;11.47;;;2.10;99.90;;;;;;6067089;23;20451;-75
2021/01/14 04:21:47;;;;;;;12.43;11.83;;;2.10;99.90;;;;;;6068562;23;20886;-75
2021/01/14 04:24:14;;;;;;;12.53;11.83;;;2.10;99.90;;;;;;6067220;23;20423;-77
2021/01/14 04:26:42;;;;;;;12.47;11.70;;;2.10;99.90;;;;;;6068366;23;20446;-76
2021/01/14 04:29:09;;;;;;;12.40;11.70;;;2.10;99.90;;;;;;6065240;23;20440;-76
2021/01/14 04:31:35;;;;;;;12.00;11.40;;;2.10;99.90;;;;;;6064265;23;20461;-76
2021/01/14 04:34:03;;;;;;;11.67;11.07;;;2.00;99.90;;;;;;6064491;23;20472;-75
2021/01/14 04:36:29;;;;;;;11.93;11.33;;;2.00;99.90;;;;;;6066422;23;20398;-75
2021/01/14 04:38:55;;;;;;;12.47;11.70;;;2.00;99.90;;;;;;6065787;23;20411;-75
2021/01/14 04:41:22;;;;;;;12.00;11.30;;;2.10;99.90;;;;;;6066318;23;20413;-76
2021/01/14 04:43:50;;;;;;;12.20;11.37;;;2.10;99.90;;;;;;6067216;23;20500;-76
2021/01/14 04:46:17;;;;;;;12.07;11.27;;;2.10;99.90;;;;;;6066135;23;20482;-76
2021/01/14 04:48:44;;;;;;;11.67;11.07;;;2.10;99.90;;;;;;6066158;23;20496;-76
2021/01/14 04:51:13;;;;;;;12.20;11.50;;;2.10;99.90;;;;;;6067395;23;20399;-76
2021/01/14 04:53:41;;;;;;;12.03;11.33;;;2.10;99.90;;;;;;6067788;23;20395;-75
2021/01/14 04:56:09;;;;;;;12.30;11.60;;;2.00;99.90;;;;;;6067774;23;20752;-76
2021/01/14 04:58:36;;;;;;;12.20;11.60;;;2.00;99.90;;;;;;6066032;23;20444;-76
2021/01/14 05:01:06;;;;;;;12.63;11.97;;;2.00;99.90;;;;;;6066149;23;20442;-76
2021/01/14 05:03:34;;;;;;;12.40;11.80;;;2.00;99.90;;;;;;6067898;23;20810;-76
2021/01/14 05:06:03;;;;;;;12.63;11.83;;;2.00;99.90;;;;;;6067681;23;20544;-75
2021/01/14 05:08:31;;;;;;;13.23;12.33;;;2.00;99.90;;;;;;6067225;23;20525;-76
2021/01/14 05:10:59;;;;;;;12.80;12.10;;;2.00;99.90;;;;;;6067659;23;20386;-76
2021/01/14 05:13:29;;;;;;;13.77;12.77;;;2.10;99.90;;;;;;6068781;23;20406;-76
2021/01/14 05:15:55;;;;;;;12.70;12.00;;;2.00;99.90;;;;;;6066138;23;20420;-76
2021/01/14 05:18:22;;;;;;;12.60;11.90;;;2.00;99.90;;;;;;6067208;23;20411;-76
2021/01/14 05:20:49;;;;;;;12.60;11.90;;;2.10;99.90;;;;;;6066094;23;20474;-76
2021/01/14 05:23:20;;;;;;;12.97;12.27;;;2.00;99.90;;;;;;6065806;23;20758;-75
2021/01/14 05:25:52;;;;;;;12.87;12.17;;;2.00;99.90;;;;;;6067623;23;20417;-75
2021/01/14 05:28:19;;;;;;;12.50;11.80;;;2.10;99.90;;;;;;6066848;23;20582;-76
2021/01/14 05:30:46;;;;;;;12.73;11.97;;;2.00;99.90;;;;;;6065763;23;20462;-76
2021/01/14 05:33:14;;;;;;;12.20;11.50;;;2.00;99.90;;;;;;6066880;23;20404;-76
2021/01/14 05:35:47;;;;;;;12.87;11.97;;;2.00;99.90;;;;;;6065466;23;20441;-76
2021/01/14 05:38:28;;;;;;;12.87;12.07;;;2.00;99.90;;;;;;6065383;23;20459;-76
2021/01/14 05:41:18;;;;;;;13.20;12.50;;;2.00;99.90;;;;;;6067549;23;20443;-76
2021/01/14 05:43:55;;;;;;;13.30;12.60;;;2.00;99.90;;;;;;6065749;23;20431;-76
2021/01/14 05:46:22;;;;;;;12.60;11.90;;;2.00;99.90;;;;;;6067069;23;20446;-76
2021/01/14 05:48:50;;;;;;;12.63;11.93;;;1.90;99.90;;;;;;6065574;23;20804;-76
2021/01/14 05:51:19;;;;;;;12.60;11.90;;;2.00;99.90;;;;;;6065686;23;20428;-76
2021/01/14 05:53:59;;;;;;;12.80;12.00;;;1.90;99.90;;;;;;6067548;23;20401;-75
2021/01/14 05:56:42;;;;;;;12.47;11.77;;;1.90;99.90;;;;;;6067732;23;20389;-76
2021/01/14 05:59:10;;;;;;;12.70;12.00;;;1.90;99.90;;;;;;6066960;23;20405;-76
2021/01/14 06:01:39;;;;;;;13.50;12.70;;;1.90;99.90;;;;;;6067172;23;20392;-76
2021/01/14 06:04:16;;;;;;;13.40;12.60;;;1.90;99.90;;;;;;6089579;23;20418;-76
2021/01/14 06:06:44;;;;;;;12.90;12.20;;;1.90;99.90;;;;;;6067446;23;20768;-76
2021/01/14 06:09:12;;;;;;;13.20;12.40;;;1.90;99.90;;;;;;6065182;23;20452;-76
2021/01/14 06:11:38;;;;;;;13.40;12.70;;;1.90;99.90;;;;;;6067011;23;20467;-76
2021/01/14 06:14:05;;;;;;;13.30;12.50;;;1.90;99.90;;;;;;6067157;23;20419;-75
2021/01/14 06:16:49;;;;;;;12.83;12.03;;;1.90;99.90;;;;;;6067778;23;20873;-75
2021/01/14 06:19:15;;;;;;;13.00;12.20;;;1.90;99.90;;;;;;6065670;23;20510;-75
2021/01/14 06:21:47;;;;;;;13.33;12.63;;;1.80;99.90;;;;;;6067164;23;20763;-75
2021/01/14 06:24:24;;;;;;;13.40;12.60;;;1.80;99.90;;;;;;6065277;23;20829;-76
2021/01/14 06:26:52;;;;;;;13.60;12.80;;;1.80;99.90;;;;;;6065546;23;20427;-76
2021/01/14 06:29:20;;;;;;;14.03;13.23;;;1.80;99.90;;;;;;6066562;23;20460;-75
2021/01/14 06:31:46;;;;;;;13.50;12.70;;;1.80;99.90;;;;;;6066691;23;20442;-75
2021/01/14 06:34:15;;;;;;;13.57;12.77;;;1.80;99.90;;;;;;6065134;23;20446;-76
2021/01/14 06:36:47;;;;;;;14.07;13.23;;;1.80;99.90;;;;;;6067179;23;20425;-75
2021/01/14 06:39:19;;;;;;;13.27;12.57;;;1.80;99.90;;;;;;6065173;23;20486;-76
2021/01/14 06:41:46;;;;;;;13.80;13.00;;;1.80;99.90;;;;;;6067013;23;20481;-75
2021/01/14 06:44:15;;;;;;;14.07;13.27;;;1.80;99.90;;;;;;6065135;23;20422;-76
2021/01/14 06:46:42;;;;;;;14.33;13.53;;;1.80;99.90;;;;;;6065238;23;20812;-75
2021/01/14 06:49:12;;;;;;;13.60;12.90;;;1.80;99.90;;;;;;6064839;23;20776;-76
2021/01/14 06:52:08;;;;;;;14.10;13.30;;;1.80;99.90;;;;;;6065320;23;20403;-76
2021/01/14 06:54:39;;;;;;;13.30;12.60;;;1.80;99.90;;;;;;6071544;23;20431;-76
2021/01/14 06:57:16;;;;;;;14.40;13.50;;;1.80;99.90;;;;;;6065443;23;20501;-76
2021/01/14 06:59:43;;;;;;;14.33;13.50;;;1.80;99.90;;;;;;6065890;23;20823;-75
2021/01/14 07:02:50;;;;;;;14.53;13.63;;;1.80;99.90;;;;;;6065279;23;20452;-76
2021/01/14 07:05:28;;;;;;;14.13;13.33;;;1.80;99.90;;;;;;6089536;23;20407;-76
2021/01/14 07:08:18;;;;;;;14.33;13.43;;;1.80;99.90;;;;;;6066625;23;20480;-76
2021/01/14 07:10:59;;;;;;;13.93;13.10;;;1.80;99.90;;;;;;6066131;23;20407;-76
2021/01/14 07:13:31;;;;;;;14.30;13.40;;;1.80;99.90;;;;;;6066334;23;20720;-76
2021/01/14 07:15:59;;;;;;;14.67;13.83;;;1.80;99.90;;;;;;6067784;23;20755;-78
2021/01/14 07:18:28;;;;;;;13.80;13.00;;;1.80;99.90;;;;;;6066663;23;20779;-78
2021/01/14 07:20:57;;;;;;;13.30;12.60;;;1.80;99.90;;;;;;6067166;23;20510;-77
2021/01/14 07:23:26;;;;;;;14.13;13.23;;;1.70;99.90;;;;;;6067940;23;20399;-75
2021/01/14 07:25:54;;;;;;;14.20;13.30;;;1.70;99.90;;;;;;6068561;23;20383;-77
2021/01/14 07:28:21;;;;;;;13.60;12.83;;;1.70;99.90;;;;;;6067654;23;20817;-77
2021/01/14 07:30:47;;;;;;;13.10;12.30;;;1.80;99.90;;;;;;6067255;23;20391;-77
2021/01/14 07:33:13;;;;;;;12.93;12.13;;;1.80;99.90;;;;;;6068691;23;20395;-78
2021/01/14 07:35:41;;;;;;;14.00;13.20;;;1.80;99.90;;;;;;6069310;23;20395;-76
2021/01/14 07:38:12;;;;;;;13.80;13.07;;;1.80;99.90;;;;;;6066275;23;20418;-76
2021/01/14 07:40:40;;;;;;;13.30;12.60;;;1.80;99.90;;;;;;6064752;23;20424;-75
2021/01/14 07:43:08;;;;;;;13.77;12.97;;;1.80;99.90;;;;;;6066643;23;20871;-76
2021/01/14 07:45:38;;;;;;;14.40;13.60;;;1.80;99.90;;;;;;6066552;23;20376;-76
2021/01/14 07:48:21;;;;;;;14.27;13.47;;;1.80;99.90;;;;;;6066252;23;20443;-76
2021/01/14 07:50:52;;;;;;;14.37;13.57;;;1.80;99.90;;;;;;6066461;23;20490;-76
2021/01/14 07:53:19;;;;;;;14.37;13.47;;;1.80;99.90;;;;;;6066315;23;20390;-75
2021/01/14 07:55:47;;;;;;;9.70;9.00;;;1.70;99.90;;;;;;6066180;23;20913;-76
2021/01/14 07:58:24;;;;;;;9.20;8.50;;;1.70;99.90;;;;;;6067810;23;20631;-76
2021/01/14 08:01:05;;;;;;;4.37;3.93;;;1.70;99.90;;;;;;6069387;23;20386;-76
2021/01/14 08:03:36;;;;;;;4.43;4.03;;;1.70;99.90;;;;;;6068352;23;20393;-75
2021/01/14 08:06:19;;;;;;;4.53;4.13;;;1.70;99.90;;;;;;6068168;23;20466;-76
2021/01/14 08:08:56;;;;;;;4.70;4.30;;;1.70;99.90;;;;;;6067872;23;20833;-76
2021/01/14 08:11:24;;;;;;;4.00;3.67;;;1.80;99.90;;;;;;6066484;23;20417;-76
2021/01/14 08:14:16;;;;;;;4.43;4.03;;;1.70;99.90;;;;;;6066281;23;20418;-76
2021/01/14 08:16:45;;;;;;;4.33;3.97;;;1.70;99.90;;;;;;6052778;23;20415;-76
2021/01/14 08:19:30;;;;;;;3.80;3.50;;;1.70;99.90;;;;;;6067618;23;20498;-76
2021/01/14 08:22:07;;;;;;;3.73;3.40;;;1.70;99.90;;;;;;6067131;23;20416;-76
2021/01/14 08:24:44;;;;;;;4.57;3.47;;;1.70;99.90;;;;;;6066806;23;21051;-76
2021/01/14 08:27:13;;;;;;;3.77;3.53;;;1.70;99.90;;;;;;6067498;23;20473;-76
2021/01/14 08:29:50;;;;;;;4.07;3.67;;;1.70;99.90;;;;;;6065876;23;20438;-76
2021/01/14 08:32:40;;;;;;;4.67;4.20;;;1.70;99.90;;;;;;6066997;23;20414;-76
2021/01/14 08:35:09;;;;;;;4.30;4.00;;;1.70;99.90;;;;;;6069131;23;20722;-75
2021/01/14 08:37:37;;;;;;;4.60;4.20;;;1.70;99.90;;;;;;6070496;23;20459;-77
2021/01/14 08:40:07;;;;;;;5.17;4.67;;;1.70;99.90;;;;;;6070444;23;20393;-77
2021/01/14 08:42:36;;;;;;;5.07;4.30;;;1.70;99.90;;;;;;6069120;23;20918;-78
2021/01/14 08:45:11;;;;;;;4.83;4.30;;;1.70;99.90;;;;;;6071188;23;20392;-77
2021/01/14 08:48:09;;;;;;;4.70;4.30;;;1.60;99.90;;;;;;6068448;23;20470;-77
2021/01/14 08:50:58;;;;;;;6.37;5.87;;;1.60;99.90;;;;;;6068513;23;20425;-78
2021/01/14 08:53:27;;;;;;;4.57;4.17;;;1.60;99.90;;;;;;6067768;23;20756;-78
2021/01/14 08:55:55;;;;;;;4.40;4.03;;;1.60;99.90;;;;;;6068777;23;20411;-78
2021/01/14 08:58:36;;;;;;;7.00;6.50;;;1.70;99.90;;;;;;6067671;23;20749;-76
2021/01/14 09:01:03;;;;;;;7.77;7.13;;;1.70;99.90;;;;;;6070727;23;20408;-77
2021/01/14 09:03:29;;;;;;;4.63;4.23;;;1.70;99.90;;;;;;6068049;23;20396;-76
2021/01/14 09:05:55;;;;;;;4.43;4.03;;;1.70;99.90;;;;;;6067314;23;20887;-76
2021/01/14 09:08:22;;;;;;;5.37;4.83;;;1.70;99.90;;;;;;6066809;23;20842;-76
2021/01/14 09:10:50;;;;;;;6.70;5.03;;;1.80;99.90;;;;;;6067595;23;20443;-76
2021/01/14 09:13:19;;;;;;;5.57;5.00;;;1.80;99.90;;;;;;6067410;23;20396;-76
2021/01/14 09:15:47;;;;;;;5.70;5.20;;;1.80;99.90;;;;;;6067306;23;20398;-76
2021/01/14 09:18:14;;;;;;;8.50;7.80;;;1.80;99.90;;;;;;6067087;23;20417;-75
2021/01/14 09:20:41;;;;;;;8.60;8.00;;;1.70;99.90;;;;;;6065184;23;20501;-76
2021/01/14 09:23:19;;;;;;;10.33;9.63;;;1.70;99.90;;;;;;6067449;23;20409;-75
2021/01/14 09:25:47;;;;;;;10.73;9.97;;;1.70;99.90;;;;;;6067525;23;20396;-76
2021/01/14 09:28:14;;;;;;;9.80;9.00;;;1.70;99.90;;;;;;6066717;23;20805;-75
2021/01/14 09:30:41;;;;;;;10.43;9.60;;;1.80;99.90;;;;;;6066003;23;20419;-76
2021/01/14 09:33:08;;;;;;;10.77;10.00;;;1.80;99.90;;;;;;6067334;23;20399;-75
2021/01/14 09:35:35;;;;;;;11.13;10.43;;;1.80;99.90;;;;;;6067181;23;20398;-76
2021/01/14 09:38:01;;;;;;;9.80;9.20;;;1.90;99.90;;;;;;6067248;23;20417;-76
2021/01/14 09:40:28;;;;;;;9.27;8.67;;;1.80;99.90;;;;;;6066857;23;20782;-76
2021/01/14 09:42:58;;;;;;;10.17;9.43;;;1.90;99.90;;;;;;6065601;23;20488;-76
2021/01/14 09:45:24;;;;;;;11.27;10.37;;;1.90;99.90;;;;;;6065994;23;20412;-76
2021/01/14 09:47:52;;;;;;;10.13;9.40;;;2.00;99.90;;;;;;6065126;23;20448;-76
2021/01/14 09:50:24;;;;;;;5.70;5.20;;;2.00;99.90;;;;;;6065207;23;20429;-76
2021/01/14 09:52:50;;;;;;;4.60;4.20;;;2.00;99.90;;;;;;6065619;23;20462;-76
2021/01/14 09:55:16;;;;;;;4.27;3.87;;;2.00;99.90;;;;;;6065310;23;20929;-76
2021/01/14 09:57:49;;;;;;;3.90;3.60;;;2.00;99.90;;;;;;6066909;23;20394;-76
2021/01/14 10:00:19;;;;;;;4.60;4.20;;;2.10;99.90;;;;;;6066576;23;20380;-76
2021/01/14 10:02:50;;;;;;;3.57;3.30;;;2.00;99.90;;;;;;6066938;23;20390;-76
2021/01/14 10:05:17;;;;;;;3.40;3.03;;;2.10;99.90;;;;;;6066844;23;20429;-76
2021/01/14 10:07:48;;;;;;;5.97;5.47;;;2.10;99.90;;;;;;6066954;23;20939;-76
2021/01/14 10:10:15;;;;;;;11.50;10.87;;;2.10;99.90;;;;;;6064887;23;20803;-76
2021/01/14 10:12:41;;;;;;;10.60;9.90;;;2.10;99.90;;;;;;6066916;23;20391;-76
2021/01/14 10:15:09;;;;;;;8.30;7.80;;;2.10;99.90;;;;;;6066588;23;20428;-75
2021/01/14 10:17:37;;;;;;;10.90;10.20;;;2.10;99.90;;;;;;6066581;23;20394;-76
2021/01/14 10:20:04;;;;;;;2.90;2.70;;;2.00;99.90;;;;;;6066353;23;20477;-76
2021/01/14 10:22:34;;;;;;;4.13;3.70;;;2.00;99.90;;;;;;6066552;23;20424;-76
2021/01/14 10:25:07;;;;;;;6.53;6.13;;;2.10;99.90;;;;;;6065155;23;20414;-75
2021/01/14 10:27:34;;;;;;;12.13;11.13;;;2.00;99.90;;;;;;6067237;23;20462;-76
2021/01/14 10:30:17;;;;;;;5.63;5.23;;;2.00;99.90;;;;;;6066628;23;20393;-76
2021/01/14 10:32:44;;;;;;;3.50;3.20;;;2.00;99.90;;;;;;6065369;23;20417;-76
2021/01/14 10:35:22;;;;;;;3.63;3.33;;;2.00;99.90;;;;;;6065233;23;20446;-76
2021/01/14 10:37:49;;;;;;;3.90;3.60;;;2.10;99.90;;;;;;6066559;23;20490;-76
2021/01/14 10:40:22;;;;;;;15.67;14.67;;;2.10;99.90;;;;;;6066444;23;20391;-76
2021/01/14 10:42:49;;;;;;;3.90;3.60;;;2.00;99.90;;;;;;6067442;23;20390;-75
2021/01/14 10:45:24;;;;;;;4.80;4.30;;;2.00;99.90;;;;;;6065303;23;20418;-76
2021/01/14 10:48:04;;;;;;;3.17;2.97;;;2.10;99.90;;;;;;6066567;23;20443;-76
2021/01/14 10:50:30;;;;;;;4.50;4.20;;;2.00;99.90;;;;;;6064767;23;20988;-76
2021/01/14 10:52:57;;;;;;;4.40;4.00;;;2.00;99.90;;;;;;6088990;23;20419;-76
2021/01/14 10:55:25;;;;;;;3.40;3.10;;;2.00;99.90;;;;;;6065330;23;20925;-76
2021/01/14 10:57:53;;;;;;;5.00;4.40;;;2.00;99.90;;;;;;6066445;23;20450;-76
2021/01/14 11:00:20;;;;;;;3.40;3.20;;;2.00;99.90;;;;;;6064854;23;20428;-76
2021/01/14 11:02:47;;;;;;;3.33;3.13;;;2.00;99.90;;;;;;6066316;23;20443;-76
2021/01/14 11:05:14;;;;;;;3.60;3.30;;;2.00;99.90;;;;;;6066496;23;20391;-76
2021/01/14 11:07:41;;;;;;;3.50;3.27;;;2.00;99.90;;;;;;6064778;23;20453;-76
2021/01/14 11:10:08;;;;;;;3.73;3.37;;;2.00;99.90;;;;;;6066066;23;20394;-76
2021/01/14 11:12:50;;;;;;;4.47;3.50;;;2.00;99.90;;;;;;6067673;23;20700;-76
2021/01/14 11:15:17;;;;;;;10.20;9.50;;;2.00;99.90;;;;;;6063727;23;20412;-76
2021/01/14 11:17:43;;;;;;;10.10;9.50;;;1.90;99.90;;;;;;6066517;23;22043;-76
2021/01/14 11:20:11;;;;;;;9.70;8.77;;;1.90;99.90;;;;;;6064578;23;20763;-76
2021/01/14 11:22:37;;;;;;;9.43;8.83;;;1.90;99.90;;;;;;6066294;23;20428;-76
2021/01/14 11:25:05;;;;;;;3.27;3.03;;;1.90;99.90;;;;;;6066291;23;20718;-75
2021/01/14 11:27:31;;;;;;;4.43;3.67;;;2.00;99.90;;;;;;6066384;23;20485;-76
2021/01/14 11:29:58;;;;;;;4.90;4.40;;;2.00;99.90;;;;;;6064923;23;20422;-76
2021/01/14 11:32:24;;;;;;;5.80;5.20;;;2.00;99.90;;;;;;6066694;23;20423;-76
2021/01/14 11:34:55;;;;;;;4.17;3.93;;;2.10;99.90;;;;;;6068500;23;20385;-76
2021/01/14 11:37:21;;;;;;;3.50;3.20;;;2.00;99.90;;;;;;6068274;23;20383;-76
2021/01/14 11:39:47;;;;;;;3.93;3.40;;;2.00;99.90;;;;;;6066121;23;20441;-75
2021/01/14 11:42:13;;;;;;;3.77;3.47;;;1.90;99.90;;;;;;6066648;23;20422;-76
2021/01/14 11:44:40;;;;;;;3.30;3.10;;;2.00;99.90;;;;;;6068090;23;20479;-76
2021/01/14 11:47:07;;;;;;;3.70;3.40;;;1.90;99.90;;;;;;6068043;23;20395;-75
2021/01/14 11:49:34;;;;;;;3.30;3.10;;;1.90;99.90;;;;;;6067488;23;20424;-75
2021/01/14 11:52:00;;;;;;;3.47;3.20;;;2.00;99.90;;;;;;6068145;23;20485;-76
2021/01/14 11:54:27;;;;;;;3.60;3.30;;;2.00;99.90;;;;;;6068046;23;20723;-76
2021/01/14 11:56:54;;;;;;;4.43;4.13;;;1.90;99.90;;;;;;6067773;23;20450;-76
2021/01/14 11:59:20;;;;;;;6.70;6.30;;;2.00;99.90;;;;;;6067651;23;20437;-76
2021/01/14 12:01:46;;;;;;;6.87;6.47;;;2.00;99.90;;;;;;6066752;23;20411;-76
2021/01/14 12:04:14;;;;;;;8.97;8.37;;;2.00;99.90;;;;;;6067952;23;20704;-76
2021/01/14 12:06:40;;;;;;;9.67;8.90;;;2.00;99.90;;;;;;6066472;23;20470;-76
2021/01/14 12:09:06;;;;;;;8.00;7.40;;;2.00;99.90;;;;;;6065938;23;20450;-76
2021/01/14 12:11:32;;;;;;;7.03;6.53;;;2.00;99.90;;;;;;6067731;23;20716;-76
2021/01/14 12:13:59;;;;;;;7.50;7.00;;;2.00;99.90;;;;;;6068056;23;20735;-76
2021/01/14 12:16:25;;;;;;;8.30;7.80;;;2.00;99.90;;;;;;6068687;23;20447;-76
2021/01/14 12:18:51;;;;;;;3.30;3.10;;;2.00;99.90;;;;;;6068033;23;20428;-76
2021/01/14 12:21:18;;;;;;;3.70;3.50;;;2.00;99.90;;;;;;6066599;23;20421;-75
2021/01/14 12:23:45;;;;;;;5.60;5.10;;;2.00;99.90;;;;;;6067905;23;20399;-76
2021/01/14 12:26:11;;;;;;;5.93;5.50;;;2.00;99.90;;;;;;6066197;23;20425;-75
2021/01/14 12:28:38;;;;;;;6.23;5.80;;;2.00;99.90;;;;;;6066084;23;20487;-76
2021/01/14 12:31:04;;;;;;;6.47;6.03;;;2.00;99.90;;;;;;6066190;23;20909;-76
2021/01/14 12:33:30;;;;;;;6.70;6.20;;;2.00;99.90;;;;;;6067806;23;20455;-76
2021/01/14 12:35:57;;;;;;;6.50;6.10;;;2.10;99.90;;;;;;6066694;23;20414;-76
2021/01/14 12:38:24;;;;;;;7.37;6.87;;;2.10;99.90;;;;;;6067525;23;20809;-76
2021/01/14 12:40:50;;;;;;;10.20;9.50;;;2.10;99.90;;;;;;6066065;23;20419;-76
2021/01/14 12:43:16;;;;;;;10.40;9.80;;;2.10;99.90;;;;;;6067685;23;20401;-75
2021/01/14 12:45:43;;;;;;;10.97;10.27;;;2.10;99.90;;;;;;6066118;23;20494;-75
2021/01/14 12:48:09;;;;;;;10.70;10.10;;;2.10;99.90;;;;;;6067360;23;20472;-76
2021/01/14 12:50:36;;;;;;;11.70;11.00;;;2.10;99.90;;;;;;6066046;23;20495;-75
2021/01/14 12:53:02;;;;;;;11.27;10.57;;;2.20;99.90;;;;;;6067412;23;20399;-76